sensor_id;sensor_type;location;lat;lon;timestamp;temperature;humidity
13482;DHT22;6813;60.352;15.746;2023-12-20T00:00:58;0.50;99.90
13482;DHT22;6813;60.352;15.746;2023-12-20T00:03:23;0.50;99.90
13482;DHT22;6813;60.352;15.746;2023-12-20T00:05:49;0.50;99.90
13482;DHT22;6813;60.352;15.746;2023-12-20T00:08:16;0.60;99.90
13482;DHT22;6813;60.352;15.746;2023-12-20T00:10:42;0.60;99.90
13482;DHT22;6813;60.352;15.746;2023-12-20T00:13:08;0.50;99.90
13482;DHT22;6813;60.352;15.746;2023-12-20T00:15:34;0.50;99.90
13482;DHT22;6813;60.352;15.746;2023-12-20T00:18:00;0.40;99.90
13482;DHT22;6813;60.352;15.746;2023-12-20T00:20:26;0.40;99.90
13482;DHT22;6813;60.352;15.746;2023-12-20T00:22:54;0.50;99.90
13482;DHT22;6813;60.352;15.746;2023-12-20T00:25:20;0.60;99.90
13482;DHT22;6813;60.352;15.746;2023-12-20T00:27:45;0.70;99.90
13482;DHT22;6813;60.352;15.746;2023-12-20T00:30:11;0.70;99.90
13482;DHT22;6813;60.352;15.746;2023-12-20T00:32:38;0.70;99.90
13482;DHT22;6813;60.352;15.746;2023-12-20T00:35:04;0.60;99.90
13482;DHT22;6813;60.352;15.746;2023-12-20T00:37:29;0.40;99.90
13482;DHT22;6813;60.352;15.746;2023-12-20T00:39:55;0.20;99.90
13482;DHT22;6813;60.352;15.746;2023-12-20T00:42:22;-0.10;99.90
13482;DHT22;6813;60.352;15.746;2023-12-20T00:44:48;-0.40;99.90
13482;DHT22;6813;60.352;15.746;2023-12-20T00:47:13;-0.40;99.90
13482;DHT22;6813;60.352;15.746;2023-12-20T00:49:39;-0.30;99.90
13482;DHT22;6813;60.352;15.746;2023-12-20T00:52:05;-0.40;99.90
13482;DHT22;6813;60.352;15.746;2023-12-20T00:54:30;-0.50;99.90
13482;DHT22;6813;60.352;15.746;2023-12-20T00:56:56;-0.50;99.90
13482;DHT22;6813;60.352;15.746;2023-12-20T00:59:22;-0.40;99.90
13482;DHT22;6813;60.352;15.746;2023-12-20T01:01:47;-0.30;99.90
13482;DHT22;6813;60.352;15.746;2023-12-20T01:04:13;-0.10;99.90
13482;DHT22;6813;60.352;15.746;2023-12-20T01:06:39;0.10;99.90
13482;DHT22;6813;60.352;15.746;2023-12-20T01:09:04;0.20;99.90
13482;DHT22;6813;60.352;15.746;2023-12-20T01:11:30;0.40;99.90
13482;DHT22;6813;60.352;15.746;2023-12-20T01:13:56;0.50;99.90
13482;DHT22;6813;60.352;15.746;2023-12-20T01:16:21;0.30;99.90
13482;DHT22;6813;60.352;15.746;2023-12-20T01:18:47;0.10;99.90
13482;DHT22;6813;60.352;15.746;2023-12-20T01:21:13;-0.10;99.90
13482;DHT22;6813;60.352;15.746;2023-12-20T01:23:38;-0.40;99.90
13482;DHT22;6813;60.352;15.746;2023-12-20T01:26:04;-0.40;99.90
13482;DHT22;6813;60.352;15.746;2023-12-20T01:28:31;-0.30;99.90
13482;DHT22;6813;60.352;15.746;2023-12-20T01:30:57;-0.10;99.90
13482;DHT22;6813;60.352;15.746;2023-12-20T01:33:23;-0.10;99.90
13482;DHT22;6813;60.352;15.746;2023-12-20T01:35:49;-0.30;99.90
13482;DHT22;6813;60.352;15.746;2023-12-20T01:38:14;-0.10;99.90
13482;DHT22;6813;60.352;15.746;2023-12-20T01:40:40;0.00;99.90
13482;DHT22;6813;60.352;15.746;2023-12-20T01:43:09;0.10;99.90
13482;DHT22;6813;60.352;15.746;2023-12-20T01:45:35;0.10;99.90
13482;DHT22;6813;60.352;15.746;2023-12-20T01:48:01;0.20;99.90
13482;DHT22;6813;60.352;15.746;2023-12-20T01:50:28;0.20;99.90
13482;DHT22;6813;60.352;15.746;2023-12-20T01:52:55;0.10;99.90
13482;DHT22;6813;60.352;15.746;2023-12-20T01:55:24;0.10;99.90
13482;DHT22;6813;60.352;15.746;2023-12-20T01:57:50;0.20;99.90
13482;DHT22;6813;60.352;15.746;2023-12-20T02:00:17;0.20;99.90
13482;DHT22;6813;60.352;15.746;2023-12-20T02:02:44;0.10;99.90
13482;DHT22;6813;60.352;15.746;2023-12-20T02:05:11;0.00;99.90
13482;DHT22;6813;60.352;15.746;2023-12-20T02:07:37;-0.20;99.90
13482;DHT22;6813;60.352;15.746;2023-12-20T02:10:03;-0.30;99.90
13482;DHT22;6813;60.352;15.746;2023-12-20T02:12:32;-0.40;99.90
13482;DHT22;6813;60.352;15.746;2023-12-20T02:14:57;-0.40;99.90
13482;DHT22;6813;60.352;15.746;2023-12-20T02:17:23;-0.30;99.90
13482;DHT22;6813;60.352;15.746;2023-12-20T02:19:50;-0.20;99.90
13482;DHT22;6813;60.352;15.746;2023-12-20T02:22:15;-0.20;99.90
13482;DHT22;6813;60.352;15.746;2023-12-20T02:24:41;-0.10;99.90
13482;DHT22;6813;60.352;15.746;2023-12-20T02:27:08;-0.10;99.90
13482;DHT22;6813;60.352;15.746;2023-12-20T02:29:34;-0.10;99.90
13482;DHT22;6813;60.352;15.746;2023-12-20T02:32:00;-0.10;99.90
13482;DHT22;6813;60.352;15.746;2023-12-20T02:34:26;-0.10;99.90
13482;DHT22;6813;60.352;15.746;2023-12-20T02:36:52;0.00;99.90
13482;DHT22;6813;60.352;15.746;2023-12-20T02:39:18;0.00;99.90
13482;DHT22;6813;60.352;15.746;2023-12-20T02:41:44;0.00;99.90
13482;DHT22;6813;60.352;15.746;2023-12-20T02:44:10;0.00;99.90
13482;DHT22;6813;60.352;15.746;2023-12-20T02:46:35;-0.10;99.90
13482;DHT22;6813;60.352;15.746;2023-12-20T02:49:01;-0.20;99.90
13482;DHT22;6813;60.352;15.746;2023-12-20T02:51:27;-0.40;99.90
13482;DHT22;6813;60.352;15.746;2023-12-20T02:53:52;-0.40;99.90
13482;DHT22;6813;60.352;15.746;2023-12-20T02:56:18;-0.50;99.90
13482;DHT22;6813;60.352;15.746;2023-12-20T02:58:44;-0.60;99.90
13482;DHT22;6813;60.352;15.746;2023-12-20T03:01:09;-0.70;99.90
13482;DHT22;6813;60.352;15.746;2023-12-20T03:03:35;-0.70;99.90
13482;DHT22;6813;60.352;15.746;2023-12-20T03:06:01;-0.70;99.90
13482;DHT22;6813;60.352;15.746;2023-12-20T03:08:26;-0.70;99.90
13482;DHT22;6813;60.352;15.746;2023-12-20T03:10:52;-0.60;99.90
13482;DHT22;6813;60.352;15.746;2023-12-20T03:13:19;-0.40;99.90
13482;DHT22;6813;60.352;15.746;2023-12-20T03:15:45;-0.40;99.90
13482;DHT22;6813;60.352;15.746;2023-12-20T03:18:11;-0.30;99.90
13482;DHT22;6813;60.352;15.746;2023-12-20T03:20:36;-0.60;99.90
13482;DHT22;6813;60.352;15.746;2023-12-20T03:23:03;-1.20;99.90
13482;DHT22;6813;60.352;15.746;2023-12-20T03:25:29;-1.50;99.90
13482;DHT22;6813;60.352;15.746;2023-12-20T03:27:55;-1.70;99.90
13482;DHT22;6813;60.352;15.746;2023-12-20T03:30:20;-1.80;99.90
13482;DHT22;6813;60.352;15.746;2023-12-20T03:32:47;-1.80;99.90
13482;DHT22;6813;60.352;15.746;2023-12-20T03:35:12;-1.80;99.90
13482;DHT22;6813;60.352;15.746;2023-12-20T03:37:38;-1.90;99.90
13482;DHT22;6813;60.352;15.746;2023-12-20T03:40:04;-1.80;99.90
13482;DHT22;6813;60.352;15.746;2023-12-20T03:42:30;-1.90;99.90
13482;DHT22;6813;60.352;15.746;2023-12-20T03:44:56;-1.80;99.90
13482;DHT22;6813;60.352;15.746;2023-12-20T03:47:22;-1.90;99.90
13482;DHT22;6813;60.352;15.746;2023-12-20T03:49:47;-1.80;99.90
13482;DHT22;6813;60.352;15.746;2023-12-20T03:52:13;-1.70;99.90
13482;DHT22;6813;60.352;15.746;2023-12-20T03:54:40;-1.70;99.90
13482;DHT22;6813;60.352;15.746;2023-12-20T03:57:07;-1.50;99.90
13482;DHT22;6813;60.352;15.746;2023-12-20T03:59:37;-1.10;99.90
13482;DHT22;6813;60.352;15.746;2023-12-20T04:02:03;-0.90;99.90
13482;DHT22;6813;60.352;15.746;2023-12-20T04:04:29;-0.70;99.90
13482;DHT22;6813;60.352;15.746;2023-12-20T04:06:55;-0.60;99.90
13482;DHT22;6813;60.352;15.746;2023-12-20T04:09:20;-0.60;99.90
13482;DHT22;6813;60.352;15.746;2023-12-20T04:11:46;-0.50;99.90
13482;DHT22;6813;60.352;15.746;2023-12-20T04:14:12;-0.40;99.90
13482;DHT22;6813;60.352;15.746;2023-12-20T04:16:37;-0.30;99.90
13482;DHT22;6813;60.352;15.746;2023-12-20T04:19:04;-0.20;99.90
13482;DHT22;6813;60.352;15.746;2023-12-20T04:21:30;-0.10;99.90
13482;DHT22;6813;60.352;15.746;2023-12-20T04:23:55;-0.10;99.90
13482;DHT22;6813;60.352;15.746;2023-12-20T04:26:21;-0.20;99.90
13482;DHT22;6813;60.352;15.746;2023-12-20T04:28:47;-0.40;99.90
13482;DHT22;6813;60.352;15.746;2023-12-20T04:31:13;-0.50;99.90
13482;DHT22;6813;60.352;15.746;2023-12-20T04:33:38;-0.60;99.90
13482;DHT22;6813;60.352;15.746;2023-12-20T04:36:04;-0.50;99.90
13482;DHT22;6813;60.352;15.746;2023-12-20T04:38:30;-0.30;99.90
13482;DHT22;6813;60.352;15.746;2023-12-20T04:40:56;-0.10;99.90
13482;DHT22;6813;60.352;15.746;2023-12-20T04:43:21;0.00;99.90
13482;DHT22;6813;60.352;15.746;2023-12-20T04:45:47;-0.10;99.90
13482;DHT22;6813;60.352;15.746;2023-12-20T04:48:13;-0.20;99.90
13482;DHT22;6813;60.352;15.746;2023-12-20T04:50:39;-0.40;99.90
13482;DHT22;6813;60.352;15.746;2023-12-20T04:53:04;-0.40;99.90
13482;DHT22;6813;60.352;15.746;2023-12-20T04:55:30;-0.50;99.90
13482;DHT22;6813;60.352;15.746;2023-12-20T04:57:56;-0.60;99.90
13482;DHT22;6813;60.352;15.746;2023-12-20T05:00:22;-0.50;99.90
13482;DHT22;6813;60.352;15.746;2023-12-20T05:02:47;-0.40;99.90
13482;DHT22;6813;60.352;15.746;2023-12-20T05:05:13;-0.40;99.90
13482;DHT22;6813;60.352;15.746;2023-12-20T05:07:40;-0.30;99.90
13482;DHT22;6813;60.352;15.746;2023-12-20T05:10:07;-0.20;99.90
13482;DHT22;6813;60.352;15.746;2023-12-20T05:12:35;-0.20;99.90
13482;DHT22;6813;60.352;15.746;2023-12-20T05:15:01;-0.20;99.90
13482;DHT22;6813;60.352;15.746;2023-12-20T05:17:27;-0.20;99.90
13482;DHT22;6813;60.352;15.746;2023-12-20T05:19:52;-0.20;99.90
13482;DHT22;6813;60.352;15.746;2023-12-20T05:22:19;-0.30;99.90
13482;DHT22;6813;60.352;15.746;2023-12-20T05:24:45;-0.40;99.90
13482;DHT22;6813;60.352;15.746;2023-12-20T05:27:11;-0.50;99.90
13482;DHT22;6813;60.352;15.746;2023-12-20T05:29:37;-0.50;99.90
13482;DHT22;6813;60.352;15.746;2023-12-20T05:32:03;-0.50;99.90
13482;DHT22;6813;60.352;15.746;2023-12-20T05:34:30;-0.50;99.90
13482;DHT22;6813;60.352;15.746;2023-12-20T05:36:57;-0.40;99.90
13482;DHT22;6813;60.352;15.746;2023-12-20T05:39:22;-0.30;99.90
13482;DHT22;6813;60.352;15.746;2023-12-20T05:41:48;-0.30;99.90
13482;DHT22;6813;60.352;15.746;2023-12-20T05:44:14;-0.20;99.90
13482;DHT22;6813;60.352;15.746;2023-12-20T05:46:40;-0.20;99.90
13482;DHT22;6813;60.352;15.746;2023-12-20T05:49:06;-0.20;99.90
13482;DHT22;6813;60.352;15.746;2023-12-20T05:51:32;-0.20;99.90
13482;DHT22;6813;60.352;15.746;2023-12-20T05:53:58;-0.10;99.90
13482;DHT22;6813;60.352;15.746;2023-12-20T05:56:24;-0.10;99.90
13482;DHT22;6813;60.352;15.746;2023-12-20T05:58:49;0.00;99.90
13482;DHT22;6813;60.352;15.746;2023-12-20T06:01:15;0.10;99.90
13482;DHT22;6813;60.352;15.746;2023-12-20T06:03:44;0.10;99.90
13482;DHT22;6813;60.352;15.746;2023-12-20T06:06:11;0.10;99.90
13482;DHT22;6813;60.352;15.746;2023-12-20T06:08:38;0.10;99.90
13482;DHT22;6813;60.352;15.746;2023-12-20T06:11:04;0.10;99.90
13482;DHT22;6813;60.352;15.746;2023-12-20T06:13:30;0.10;99.90
13482;DHT22;6813;60.352;15.746;2023-12-20T06:15:56;0.10;99.90
13482;DHT22;6813;60.352;15.746;2023-12-20T06:18:22;0.10;99.90
13482;DHT22;6813;60.352;15.746;2023-12-20T06:20:48;0.00;99.90
13482;DHT22;6813;60.352;15.746;2023-12-20T06:23:14;-0.10;99.90
13482;DHT22;6813;60.352;15.746;2023-12-20T06:25:40;-0.10;99.90
13482;DHT22;6813;60.352;15.746;2023-12-20T06:28:06;0.00;99.90
13482;DHT22;6813;60.352;15.746;2023-12-20T06:30:32;0.00;99.90
13482;DHT22;6813;60.352;15.746;2023-12-20T06:32:58;0.00;99.90
13482;DHT22;6813;60.352;15.746;2023-12-20T06:35:24;-0.10;99.90
13482;DHT22;6813;60.352;15.746;2023-12-20T06:37:50;-0.10;99.90
13482;DHT22;6813;60.352;15.746;2023-12-20T06:40:16;-0.20;99.90
13482;DHT22;6813;60.352;15.746;2023-12-20T06:42:42;-0.20;99.90
13482;DHT22;6813;60.352;15.746;2023-12-20T06:45:08;-0.20;99.90
13482;DHT22;6813;60.352;15.746;2023-12-20T06:47:34;-0.20;99.90
13482;DHT22;6813;60.352;15.746;2023-12-20T06:50:00;-0.20;99.90
13482;DHT22;6813;60.352;15.746;2023-12-20T06:52:26;-0.20;99.90
13482;DHT22;6813;60.352;15.746;2023-12-20T06:54:52;-0.10;99.90
13482;DHT22;6813;60.352;15.746;2023-12-20T06:57:17;-0.10;99.90
13482;DHT22;6813;60.352;15.746;2023-12-20T06:59:45;0.00;99.90
13482;DHT22;6813;60.352;15.746;2023-12-20T07:02:10;-0.20;99.90
13482;DHT22;6813;60.352;15.746;2023-12-20T07:04:40;-0.20;99.90
13482;DHT22;6813;60.352;15.746;2023-12-20T07:07:06;-0.20;99.90
13482;DHT22;6813;60.352;15.746;2023-12-20T07:09:32;-0.10;99.90
13482;DHT22;6813;60.352;15.746;2023-12-20T07:11:58;-0.10;99.90
13482;DHT22;6813;60.352;15.746;2023-12-20T07:14:24;-0.10;99.90
13482;DHT22;6813;60.352;15.746;2023-12-20T07:16:50;0.00;99.90
13482;DHT22;6813;60.352;15.746;2023-12-20T07:19:15;0.00;99.90
13482;DHT22;6813;60.352;15.746;2023-12-20T07:21:41;0.00;99.90
13482;DHT22;6813;60.352;15.746;2023-12-20T07:24:07;0.00;99.90
13482;DHT22;6813;60.352;15.746;2023-12-20T07:26:33;0.10;99.90
13482;DHT22;6813;60.352;15.746;2023-12-20T07:28:59;0.10;99.90
13482;DHT22;6813;60.352;15.746;2023-12-20T07:31:25;0.10;99.90
13482;DHT22;6813;60.352;15.746;2023-12-20T07:33:51;0.00;99.90
13482;DHT22;6813;60.352;15.746;2023-12-20T07:36:16;-0.10;99.90
13482;DHT22;6813;60.352;15.746;2023-12-20T07:38:42;-0.10;99.90
13482;DHT22;6813;60.352;15.746;2023-12-20T07:41:12;-0.10;99.90
13482;DHT22;6813;60.352;15.746;2023-12-20T07:43:38;-0.20;99.90
13482;DHT22;6813;60.352;15.746;2023-12-20T07:46:07;-0.30;99.90
13482;DHT22;6813;60.352;15.746;2023-12-20T07:48:36;-0.30;99.90
13482;DHT22;6813;60.352;15.746;2023-12-20T07:51:06;-0.40;99.90
13482;DHT22;6813;60.352;15.746;2023-12-20T07:53:33;-0.50;99.90
13482;DHT22;6813;60.352;15.746;2023-12-20T07:55:59;-0.50;99.90
13482;DHT22;6813;60.352;15.746;2023-12-20T07:58:25;-0.60;99.90
13482;DHT22;6813;60.352;15.746;2023-12-20T08:00:51;-0.60;99.90
13482;DHT22;6813;60.352;15.746;2023-12-20T08:03:16;-0.50;99.90
13482;DHT22;6813;60.352;15.746;2023-12-20T08:05:42;-0.60;99.90
13482;DHT22;6813;60.352;15.746;2023-12-20T08:08:08;-0.70;99.90
13482;DHT22;6813;60.352;15.746;2023-12-20T08:10:33;-0.80;99.90
13482;DHT22;6813;60.352;15.746;2023-12-20T08:12:59;-0.80;99.90
13482;DHT22;6813;60.352;15.746;2023-12-20T08:15:25;-0.90;99.90
13482;DHT22;6813;60.352;15.746;2023-12-20T08:17:50;-0.70;99.90
13482;DHT22;6813;60.352;15.746;2023-12-20T08:20:17;-0.10;99.90
13482;DHT22;6813;60.352;15.746;2023-12-20T08:22:42;0.20;99.90
13482;DHT22;6813;60.352;15.746;2023-12-20T08:25:08;0.20;99.90
13482;DHT22;6813;60.352;15.746;2023-12-20T08:27:39;0.20;99.90
13482;DHT22;6813;60.352;15.746;2023-12-20T08:30:05;0.00;99.90
13482;DHT22;6813;60.352;15.746;2023-12-20T08:32:31;-0.20;99.90
13482;DHT22;6813;60.352;15.746;2023-12-20T08:34:57;-0.30;99.90
13482;DHT22;6813;60.352;15.746;2023-12-20T08:37:23;-0.40;99.90
13482;DHT22;6813;60.352;15.746;2023-12-20T08:39:49;-0.40;99.90
13482;DHT22;6813;60.352;15.746;2023-12-20T08:42:14;-0.50;99.90
13482;DHT22;6813;60.352;15.746;2023-12-20T08:44:40;-0.50;99.90
13482;DHT22;6813;60.352;15.746;2023-12-20T08:47:06;-0.50;99.90
13482;DHT22;6813;60.352;15.746;2023-12-20T08:49:31;-0.60;99.90
13482;DHT22;6813;60.352;15.746;2023-12-20T08:51:57;-0.60;99.90
13482;DHT22;6813;60.352;15.746;2023-12-20T08:54:23;-0.60;99.90
13482;DHT22;6813;60.352;15.746;2023-12-20T08:56:49;-0.60;99.90
13482;DHT22;6813;60.352;15.746;2023-12-20T08:59:14;-0.60;99.90
13482;DHT22;6813;60.352;15.746;2023-12-20T09:01:40;-0.60;99.90
13482;DHT22;6813;60.352;15.746;2023-12-20T09:04:05;-0.70;99.90
13482;DHT22;6813;60.352;15.746;2023-12-20T09:06:31;-0.70;99.90
13482;DHT22;6813;60.352;15.746;2023-12-20T09:08:57;-0.60;99.90
13482;DHT22;6813;60.352;15.746;2023-12-20T09:11:23;-0.50;99.90
13482;DHT22;6813;60.352;15.746;2023-12-20T09:13:48;-0.40;99.90
13482;DHT22;6813;60.352;15.746;2023-12-20T09:16:14;-0.40;99.90
13482;DHT22;6813;60.352;15.746;2023-12-20T09:18:41;-0.30;99.90
13482;DHT22;6813;60.352;15.746;2023-12-20T09:21:07;-0.30;99.90
13482;DHT22;6813;60.352;15.746;2023-12-20T09:23:33;-0.40;99.90
13482;DHT22;6813;60.352;15.746;2023-12-20T09:25:58;-0.40;99.90
13482;DHT22;6813;60.352;15.746;2023-12-20T09:28:24;-0.40;99.90
13482;DHT22;6813;60.352;15.746;2023-12-20T09:30:50;-0.30;99.90
13482;DHT22;6813;60.352;15.746;2023-12-20T09:33:16;-0.20;99.90
13482;DHT22;6813;60.352;15.746;2023-12-20T09:35:42;-0.20;99.90
13482;DHT22;6813;60.352;15.746;2023-12-20T09:38:07;-0.20;99.90
13482;DHT22;6813;60.352;15.746;2023-12-20T09:40:35;-0.20;99.90
13482;DHT22;6813;60.352;15.746;2023-12-20T09:43:10;-0.20;99.90
13482;DHT22;6813;60.352;15.746;2023-12-20T09:45:36;-0.20;99.90
13482;DHT22;6813;60.352;15.746;2023-12-20T09:48:03;-0.20;99.90
13482;DHT22;6813;60.352;15.746;2023-12-20T09:50:30;-0.20;99.90
13482;DHT22;6813;60.352;15.746;2023-12-20T09:52:58;-0.20;99.90
13482;DHT22;6813;60.352;15.746;2023-12-20T09:55:27;-0.10;99.90
13482;DHT22;6813;60.352;15.746;2023-12-20T09:57:53;-0.10;99.90
13482;DHT22;6813;60.352;15.746;2023-12-20T10:00:19;-0.20;99.90
13482;DHT22;6813;60.352;15.746;2023-12-20T10:02:58;-0.30;99.90
13482;DHT22;6813;60.352;15.746;2023-12-20T10:05:28;-0.40;99.90
13482;DHT22;6813;60.352;15.746;2023-12-20T10:07:54;-0.20;99.90
13482;DHT22;6813;60.352;15.746;2023-12-20T10:10:20;-0.10;99.90
13482;DHT22;6813;60.352;15.746;2023-12-20T10:13:10;-0.10;99.90
13482;DHT22;6813;60.352;15.746;2023-12-20T10:15:37;-0.10;99.90
13482;DHT22;6813;60.352;15.746;2023-12-20T10:18:03;0.00;99.90
13482;DHT22;6813;60.352;15.746;2023-12-20T10:20:30;0.00;99.90
13482;DHT22;6813;60.352;15.746;2023-12-20T10:22:57;-0.10;99.90
13482;DHT22;6813;60.352;15.746;2023-12-20T10:25:24;-0.10;99.90
13482;DHT22;6813;60.352;15.746;2023-12-20T10:27:57;0.00;99.90
13482;DHT22;6813;60.352;15.746;2023-12-20T10:30:33;0.00;99.90
13482;DHT22;6813;60.352;15.746;2023-12-20T10:32:59;0.00;99.90
13482;DHT22;6813;60.352;15.746;2023-12-20T10:35:25;0.00;99.90
13482;DHT22;6813;60.352;15.746;2023-12-20T10:37:55;0.00;99.90
13482;DHT22;6813;60.352;15.746;2023-12-20T10:40:22;-0.10;99.90
13482;DHT22;6813;60.352;15.746;2023-12-20T10:42:48;-0.10;99.90
13482;DHT22;6813;60.352;15.746;2023-12-20T10:45:14;-0.10;99.90
13482;DHT22;6813;60.352;15.746;2023-12-20T10:47:45;-0.20;99.90
13482;DHT22;6813;60.352;15.746;2023-12-20T10:50:11;-0.20;99.90
13482;DHT22;6813;60.352;15.746;2023-12-20T10:52:38;-0.30;99.90
13482;DHT22;6813;60.352;15.746;2023-12-20T10:55:04;-0.20;99.90
13482;DHT22;6813;60.352;15.746;2023-12-20T10:57:30;-0.20;99.90
13482;DHT22;6813;60.352;15.746;2023-12-20T11:00:01;-0.20;99.90
13482;DHT22;6813;60.352;15.746;2023-12-20T11:02:32;-0.20;99.90
13482;DHT22;6813;60.352;15.746;2023-12-20T11:05:14;-0.20;99.90
13482;DHT22;6813;60.352;15.746;2023-12-20T11:07:52;-0.20;99.90
13482;DHT22;6813;60.352;15.746;2023-12-20T11:10:54;-0.20;99.90
13482;DHT22;6813;60.352;15.746;2023-12-20T11:13:23;-0.20;99.90
13482;DHT22;6813;60.352;15.746;2023-12-20T11:15:52;-0.20;99.90
13482;DHT22;6813;60.352;15.746;2023-12-20T11:18:18;-0.20;99.90
13482;DHT22;6813;60.352;15.746;2023-12-20T11:20:43;-0.10;99.90
13482;DHT22;6813;60.352;15.746;2023-12-20T11:23:10;-0.10;99.90
13482;DHT22;6813;60.352;15.746;2023-12-20T11:25:51;-0.10;99.90
13482;DHT22;6813;60.352;15.746;2023-12-20T11:28:21;0.00;99.90
13482;DHT22;6813;60.352;15.746;2023-12-20T11:33:16;0.00;99.90
13482;DHT22;6813;60.352;15.746;2023-12-20T11:35:43;0.00;99.90
13482;DHT22;6813;60.352;15.746;2023-12-20T11:38:10;0.00;99.90
13482;DHT22;6813;60.352;15.746;2023-12-20T11:40:37;0.00;99.90
13482;DHT22;6813;60.352;15.746;2023-12-20T11:43:03;0.00;99.90
13482;DHT22;6813;60.352;15.746;2023-12-20T11:45:29;0.00;99.90
13482;DHT22;6813;60.352;15.746;2023-12-20T11:47:56;0.00;99.90
13482;DHT22;6813;60.352;15.746;2023-12-20T11:50:23;0.00;99.90
13482;DHT22;6813;60.352;15.746;2023-12-20T11:52:50;0.30;99.90
13482;DHT22;6813;60.352;15.746;2023-12-20T11:55:17;0.80;99.90
13482;DHT22;6813;60.352;15.746;2023-12-20T11:57:43;1.00;99.90
13482;DHT22;6813;60.352;15.746;2023-12-20T12:00:09;1.00;99.90
13482;DHT22;6813;60.352;15.746;2023-12-20T12:02:35;0.90;99.90
13482;DHT22;6813;60.352;15.746;2023-12-20T12:05:01;0.80;99.90
13482;DHT22;6813;60.352;15.746;2023-12-20T12:07:27;0.70;99.90
13482;DHT22;6813;60.352;15.746;2023-12-20T12:09:54;0.70;99.90
13482;DHT22;6813;60.352;15.746;2023-12-20T12:12:20;0.60;99.90
13482;DHT22;6813;60.352;15.746;2023-12-20T12:14:46;0.60;99.90
13482;DHT22;6813;60.352;15.746;2023-12-20T12:17:15;0.60;99.90
13482;DHT22;6813;60.352;15.746;2023-12-20T12:19:41;0.50;99.90
13482;DHT22;6813;60.352;15.746;2023-12-20T12:22:09;0.40;99.90
13482;DHT22;6813;60.352;15.746;2023-12-20T12:24:47;0.40;99.90
13482;DHT22;6813;60.352;15.746;2023-12-20T12:27:13;0.40;99.90
13482;DHT22;6813;60.352;15.746;2023-12-20T12:29:39;0.40;99.90
13482;DHT22;6813;60.352;15.746;2023-12-20T12:32:09;0.30;99.90
13482;DHT22;6813;60.352;15.746;2023-12-20T12:34:35;0.30;99.90
13482;DHT22;6813;60.352;15.746;2023-12-20T12:37:20;0.30;99.90
13482;DHT22;6813;60.352;15.746;2023-12-20T12:39:46;0.40;99.90
13482;DHT22;6813;60.352;15.746;2023-12-20T12:42:12;0.40;99.90
13482;DHT22;6813;60.352;15.746;2023-12-20T12:44:38;0.40;99.90
13482;DHT22;6813;60.352;15.746;2023-12-20T12:47:03;0.40;99.90
13482;DHT22;6813;60.352;15.746;2023-12-20T12:49:29;0.40;99.90
13482;DHT22;6813;60.352;15.746;2023-12-20T12:51:57;0.40;99.90
13482;DHT22;6813;60.352;15.746;2023-12-20T12:54:24;0.40;99.90
13482;DHT22;6813;60.352;15.746;2023-12-20T12:56:50;0.40;99.90
13482;DHT22;6813;60.352;15.746;2023-12-20T12:59:18;0.40;99.90
13482;DHT22;6813;60.352;15.746;2023-12-20T13:01:43;0.30;99.90
13482;DHT22;6813;60.352;15.746;2023-12-20T13:04:09;0.40;99.90
13482;DHT22;6813;60.352;15.746;2023-12-20T13:06:39;0.40;99.90
13482;DHT22;6813;60.352;15.746;2023-12-20T13:09:07;0.40;99.90
13482;DHT22;6813;60.352;15.746;2023-12-20T13:11:35;0.40;99.90
13482;DHT22;6813;60.352;15.746;2023-12-20T13:14:00;0.40;99.90
13482;DHT22;6813;60.352;15.746;2023-12-20T13:16:27;0.40;99.90
13482;DHT22;6813;60.352;15.746;2023-12-20T13:18:52;0.30;99.90
13482;DHT22;6813;60.352;15.746;2023-12-20T13:21:18;0.30;99.90
13482;DHT22;6813;60.352;15.746;2023-12-20T13:23:43;0.30;99.90
13482;DHT22;6813;60.352;15.746;2023-12-20T13:26:09;0.30;99.90
13482;DHT22;6813;60.352;15.746;2023-12-20T13:28:35;0.20;99.90
13482;DHT22;6813;60.352;15.746;2023-12-20T13:31:01;0.20;99.90
13482;DHT22;6813;60.352;15.746;2023-12-20T13:33:26;0.20;99.90
13482;DHT22;6813;60.352;15.746;2023-12-20T13:35:52;0.20;99.90
13482;DHT22;6813;60.352;15.746;2023-12-20T13:38:18;0.20;99.90
13482;DHT22;6813;60.352;15.746;2023-12-20T13:40:43;0.20;99.90
13482;DHT22;6813;60.352;15.746;2023-12-20T13:43:09;0.10;99.90
13482;DHT22;6813;60.352;15.746;2023-12-20T13:45:37;0.10;99.90
13482;DHT22;6813;60.352;15.746;2023-12-20T13:48:03;0.10;99.90
13482;DHT22;6813;60.352;15.746;2023-12-20T13:50:28;0.10;99.90
13482;DHT22;6813;60.352;15.746;2023-12-20T13:52:54;0.20;99.90
13482;DHT22;6813;60.352;15.746;2023-12-20T13:55:20;0.20;99.90
13482;DHT22;6813;60.352;15.746;2023-12-20T13:57:50;0.20;99.90
13482;DHT22;6813;60.352;15.746;2023-12-20T14:00:16;0.20;99.90
13482;DHT22;6813;60.352;15.746;2023-12-20T14:02:42;0.20;99.90
13482;DHT22;6813;60.352;15.746;2023-12-20T14:05:09;0.20;99.90
13482;DHT22;6813;60.352;15.746;2023-12-20T14:07:35;0.20;99.90
13482;DHT22;6813;60.352;15.746;2023-12-20T14:10:01;0.30;99.90
13482;DHT22;6813;60.352;15.746;2023-12-20T14:12:27;0.30;99.90
13482;DHT22;6813;60.352;15.746;2023-12-20T14:14:53;0.30;99.90
13482;DHT22;6813;60.352;15.746;2023-12-20T14:17:21;0.30;99.90
13482;DHT22;6813;60.352;15.746;2023-12-20T14:19:47;0.20;99.90
13482;DHT22;6813;60.352;15.746;2023-12-20T14:22:12;0.10;99.90
13482;DHT22;6813;60.352;15.746;2023-12-20T14:24:42;0.10;99.90
13482;DHT22;6813;60.352;15.746;2023-12-20T14:27:08;0.10;99.90
13482;DHT22;6813;60.352;15.746;2023-12-20T14:29:35;0.10;99.90
13482;DHT22;6813;60.352;15.746;2023-12-20T14:32:06;0.10;99.90
13482;DHT22;6813;60.352;15.746;2023-12-20T14:34:32;0.20;99.90
13482;DHT22;6813;60.352;15.746;2023-12-20T14:36:57;0.20;99.90
13482;DHT22;6813;60.352;15.746;2023-12-20T14:39:23;0.20;99.90
13482;DHT22;6813;60.352;15.746;2023-12-20T14:41:49;0.30;99.90
13482;DHT22;6813;60.352;15.746;2023-12-20T14:44:14;0.30;99.90
13482;DHT22;6813;60.352;15.746;2023-12-20T14:46:40;0.40;99.90
13482;DHT22;6813;60.352;15.746;2023-12-20T14:49:06;0.40;99.90
13482;DHT22;6813;60.352;15.746;2023-12-20T14:51:31;0.40;99.90
13482;DHT22;6813;60.352;15.746;2023-12-20T14:53:57;0.40;99.90
13482;DHT22;6813;60.352;15.746;2023-12-20T14:56:23;0.50;99.90
13482;DHT22;6813;60.352;15.746;2023-12-20T14:58:51;0.50;99.90
13482;DHT22;6813;60.352;15.746;2023-12-20T15:01:17;0.50;99.90
13482;DHT22;6813;60.352;15.746;2023-12-20T15:03:46;0.50;99.90
13482;DHT22;6813;60.352;15.746;2023-12-20T15:06:12;0.50;99.90
13482;DHT22;6813;60.352;15.746;2023-12-20T15:08:38;0.40;99.90
13482;DHT22;6813;60.352;15.746;2023-12-20T15:11:03;0.40;99.90
13482;DHT22;6813;60.352;15.746;2023-12-20T15:13:29;0.40;99.90
13482;DHT22;6813;60.352;15.746;2023-12-20T15:15:56;0.40;99.90
13482;DHT22;6813;60.352;15.746;2023-12-20T15:18:22;0.40;99.90
13482;DHT22;6813;60.352;15.746;2023-12-20T15:20:47;0.40;99.90
13482;DHT22;6813;60.352;15.746;2023-12-20T15:23:13;0.40;99.90
13482;DHT22;6813;60.352;15.746;2023-12-20T15:25:39;0.50;99.90
13482;DHT22;6813;60.352;15.746;2023-12-20T15:28:05;0.50;99.90
13482;DHT22;6813;60.352;15.746;2023-12-20T15:30:31;0.50;99.90
13482;DHT22;6813;60.352;15.746;2023-12-20T15:32:57;0.50;99.90
13482;DHT22;6813;60.352;15.746;2023-12-20T15:35:23;0.60;99.90